sensor_id;sensor_type;location;lat;lon;timestamp;P1;durP1;ratioP1;P2;durP2;ratioP2
3733;SDS011;1882;52.256;8.874;2023-03-31T00:00:50;6.37;;;2.70;;
3733;SDS011;1882;52.256;8.874;2023-03-31T00:03:18;5.60;;;2.70;;
3733;SDS011;1882;52.256;8.874;2023-03-31T00:06:18;7.57;;;3.10;;
3733;SDS011;1882;52.256;8.874;2023-03-31T00:11:47;6.90;;;3.00;;
3733;SDS011;1882;52.256;8.874;2023-03-31T00:14:35;7.80;;;2.67;;
3733;SDS011;1882;52.256;8.874;2023-03-31T00:17:10;6.70;;;2.63;;
3733;SDS011;1882;52.256;8.874;2023-03-31T00:19:40;13.33;;;2.90;;
3733;SDS011;1882;52.256;8.874;2023-03-31T00:22:16;7.40;;;2.50;;
3733;SDS011;1882;52.256;8.874;2023-03-31T00:24:57;6.87;;;2.53;;
3733;SDS011;1882;52.256;8.874;2023-03-31T00:27:31;10.30;;;3.20;;
3733;SDS011;1882;52.256;8.874;2023-03-31T00:30:29;20.53;;;3.10;;
3733;SDS011;1882;52.256;8.874;2023-03-31T00:33:01;6.53;;;2.40;;
3733;SDS011;1882;52.256;8.874;2023-03-31T00:35:37;13.53;;;2.73;;
3733;SDS011;1882;52.256;8.874;2023-03-31T00:38:08;9.37;;;2.80;;
3733;SDS011;1882;52.256;8.874;2023-03-31T00:40:45;10.60;;;2.70;;
3733;SDS011;1882;52.256;8.874;2023-03-31T00:43:32;8.40;;;2.90;;
3733;SDS011;1882;52.256;8.874;2023-03-31T00:46:22;9.20;;;2.63;;
3733;SDS011;1882;52.256;8.874;2023-03-31T00:48:58;6.27;;;2.20;;
3733;SDS011;1882;52.256;8.874;2023-03-31T00:51:26;5.87;;;2.30;;
3733;SDS011;1882;52.256;8.874;2023-03-31T00:54:20;9.50;;;2.70;;
3733;SDS011;1882;52.256;8.874;2023-03-31T00:56:54;6.10;;;2.53;;
3733;SDS011;1882;52.256;8.874;2023-03-31T00:59:58;6.60;;;2.70;;
3733;SDS011;1882;52.256;8.874;2023-03-31T01:03:20;7.67;;;2.70;;
3733;SDS011;1882;52.256;8.874;2023-03-31T01:06:01;3.90;;;1.90;;
3733;SDS011;1882;52.256;8.874;2023-03-31T01:08:50;8.37;;;2.30;;
3733;SDS011;1882;52.256;8.874;2023-03-31T01:11:28;9.53;;;2.60;;
3733;SDS011;1882;52.256;8.874;2023-03-31T01:14:09;15.73;;;2.40;;
3733;SDS011;1882;52.256;8.874;2023-03-31T01:17:10;3.93;;;2.20;;
3733;SDS011;1882;52.256;8.874;2023-03-31T01:44:16;6.20;;;2.10;;
3733;SDS011;1882;52.256;8.874;2023-03-31T01:47:22;5.43;;;2.50;;
3733;SDS011;1882;52.256;8.874;2023-03-31T01:50:15;7.40;;;2.20;;
3733;SDS011;1882;52.256;8.874;2023-03-31T01:53:19;2.73;;;1.83;;
3733;SDS011;1882;52.256;8.874;2023-03-31T01:56:36;4.27;;;1.80;;
3733;SDS011;1882;52.256;8.874;2023-03-31T01:59:40;7.37;;;2.33;;
3733;SDS011;1882;52.256;8.874;2023-03-31T02:02:29;9.07;;;2.60;;
3733;SDS011;1882;52.256;8.874;2023-03-31T02:05:18;7.07;;;2.23;;
3733;SDS011;1882;52.256;8.874;2023-03-31T02:08:13;3.13;;;2.23;;
3733;SDS011;1882;52.256;8.874;2023-03-31T02:10:43;4.80;;;1.93;;
3733;SDS011;1882;52.256;8.874;2023-03-31T02:13:50;8.87;;;2.50;;
3733;SDS011;1882;52.256;8.874;2023-03-31T02:16:23;7.50;;;2.30;;
3733;SDS011;1882;52.256;8.874;2023-03-31T02:19:06;5.00;;;2.30;;
3733;SDS011;1882;52.256;8.874;2023-03-31T02:21:38;9.90;;;2.30;;
3733;SDS011;1882;52.256;8.874;2023-03-31T02:24:18;6.57;;;2.17;;
3733;SDS011;1882;52.256;8.874;2023-03-31T02:29:43;8.63;;;2.13;;
3733;SDS011;1882;52.256;8.874;2023-03-31T02:35:28;7.77;;;2.37;;
3733;SDS011;1882;52.256;8.874;2023-03-31T02:38:14;3.47;;;2.20;;
3733;SDS011;1882;52.256;8.874;2023-03-31T02:40:41;7.67;;;2.87;;
3733;SDS011;1882;52.256;8.874;2023-03-31T02:46:26;4.40;;;1.93;;
3733;SDS011;1882;52.256;8.874;2023-03-31T02:48:54;4.57;;;2.00;;
3733;SDS011;1882;52.256;8.874;2023-03-31T02:51:43;8.07;;;2.40;;
3733;SDS011;1882;52.256;8.874;2023-03-31T03:12:33;6.10;;;2.43;;
3733;SDS011;1882;52.256;8.874;2023-03-31T03:17:34;6.03;;;2.47;;
3733;SDS011;1882;52.256;8.874;2023-03-31T03:20:06;7.10;;;2.30;;
3733;SDS011;1882;52.256;8.874;2023-03-31T03:22:37;8.87;;;1.90;;
3733;SDS011;1882;52.256;8.874;2023-03-31T03:25:12;9.53;;;2.43;;
3733;SDS011;1882;52.256;8.874;2023-03-31T03:27:58;6.80;;;2.20;;
3733;SDS011;1882;52.256;8.874;2023-03-31T03:30:34;6.87;;;2.30;;
3733;SDS011;1882;52.256;8.874;2023-03-31T03:33:02;9.87;;;2.50;;
3733;SDS011;1882;52.256;8.874;2023-03-31T03:35:37;6.83;;;2.20;;
3733;SDS011;1882;52.256;8.874;2023-03-31T03:38:04;6.27;;;2.20;;
3733;SDS011;1882;52.256;8.874;2023-03-31T03:40:46;5.77;;;2.00;;
3733;SDS011;1882;52.256;8.874;2023-03-31T03:43:15;5.00;;;2.20;;
3733;SDS011;1882;52.256;8.874;2023-03-31T03:45:53;5.73;;;2.23;;
3733;SDS011;1882;52.256;8.874;2023-03-31T03:48:22;5.60;;;2.27;;
3733;SDS011;1882;52.256;8.874;2023-03-31T03:50:49;5.77;;;2.90;;
3733;SDS011;1882;52.256;8.874;2023-03-31T03:53:27;19.93;;;2.30;;
3733;SDS011;1882;52.256;8.874;2023-03-31T03:56:17;5.70;;;2.20;;
3733;SDS011;1882;52.256;8.874;2023-03-31T03:58:50;6.77;;;1.90;;
3733;SDS011;1882;52.256;8.874;2023-03-31T04:01:20;8.57;;;2.30;;
3733;SDS011;1882;52.256;8.874;2023-03-31T04:03:51;7.10;;;2.20;;
3733;SDS011;1882;52.256;8.874;2023-03-31T04:06:51;5.47;;;2.20;;
3733;SDS011;1882;52.256;8.874;2023-03-31T04:09:18;9.03;;;2.10;;
3733;SDS011;1882;52.256;8.874;2023-03-31T04:11:52;5.50;;;1.90;;
3733;SDS011;1882;52.256;8.874;2023-03-31T04:14:21;9.77;;;2.23;;
3733;SDS011;1882;52.256;8.874;2023-03-31T04:17:18;4.33;;;1.80;;
3733;SDS011;1882;52.256;8.874;2023-03-31T04:20:12;3.80;;;2.00;;
3733;SDS011;1882;52.256;8.874;2023-03-31T04:22:48;6.37;;;2.40;;
3733;SDS011;1882;52.256;8.874;2023-03-31T04:25:18;10.03;;;2.23;;
3733;SDS011;1882;52.256;8.874;2023-03-31T04:27:59;5.17;;;1.80;;
3733;SDS011;1882;52.256;8.874;2023-03-31T04:30:26;11.17;;;2.20;;
3733;SDS011;1882;52.256;8.874;2023-03-31T04:33:02;4.30;;;1.83;;
3733;SDS011;1882;52.256;8.874;2023-03-31T04:36:02;8.00;;;1.97;;
3733;SDS011;1882;52.256;8.874;2023-03-31T04:38:55;6.30;;;2.17;;
3733;SDS011;1882;52.256;8.874;2023-03-31T04:41:22;7.60;;;2.20;;
3733;SDS011;1882;52.256;8.874;2023-03-31T04:43:57;4.60;;;2.23;;
3733;SDS011;1882;52.256;8.874;2023-03-31T04:46:24;9.27;;;2.37;;
3733;SDS011;1882;52.256;8.874;2023-03-31T04:48:52;5.80;;;2.23;;
3733;SDS011;1882;52.256;8.874;2023-03-31T04:51:18;6.27;;;2.30;;
3733;SDS011;1882;52.256;8.874;2023-03-31T04:53:56;4.67;;;2.03;;
3733;SDS011;1882;52.256;8.874;2023-03-31T04:56:22;3.63;;;2.30;;
3733;SDS011;1882;52.256;8.874;2023-03-31T04:58:49;3.80;;;2.03;;
3733;SDS011;1882;52.256;8.874;2023-03-31T05:01:19;8.30;;;2.50;;
3733;SDS011;1882;52.256;8.874;2023-03-31T05:03:46;3.80;;;2.10;;
3733;SDS011;1882;52.256;8.874;2023-03-31T05:06:16;3.80;;;2.10;;
3733;SDS011;1882;52.256;8.874;2023-03-31T05:08:49;7.77;;;2.03;;
3733;SDS011;1882;52.256;8.874;2023-03-31T05:11:16;8.43;;;2.70;;
3733;SDS011;1882;52.256;8.874;2023-03-31T05:13:46;5.53;;;2.23;;
3733;SDS011;1882;52.256;8.874;2023-03-31T05:16:44;4.37;;;2.60;;
3733;SDS011;1882;52.256;8.874;2023-03-31T05:19:12;8.10;;;2.30;;
3733;SDS011;1882;52.256;8.874;2023-03-31T05:21:57;10.43;;;2.90;;
3733;SDS011;1882;52.256;8.874;2023-03-31T05:24:46;6.87;;;2.47;;
3733;SDS011;1882;52.256;8.874;2023-03-31T05:27:17;4.80;;;2.47;;
3733;SDS011;1882;52.256;8.874;2023-03-31T05:30:04;7.63;;;2.77;;
3733;SDS011;1882;52.256;8.874;2023-03-31T05:38:14;5.43;;;2.73;;
3733;SDS011;1882;52.256;8.874;2023-03-31T05:44:35;10.20;;;3.07;;
3733;SDS011;1882;52.256;8.874;2023-03-31T05:48:50;6.13;;;2.90;;
3733;SDS011;1882;52.256;8.874;2023-03-31T05:51:20;8.83;;;3.17;;
3733;SDS011;1882;52.256;8.874;2023-03-31T05:54:04;7.40;;;2.93;;
3733;SDS011;1882;52.256;8.874;2023-03-31T05:56:31;8.07;;;2.80;;
3733;SDS011;1882;52.256;8.874;2023-03-31T05:58:59;5.23;;;3.07;;
3733;SDS011;1882;52.256;8.874;2023-03-31T06:01:30;5.63;;;2.73;;
3733;SDS011;1882;52.256;8.874;2023-03-31T06:03:58;6.07;;;2.70;;
3733;SDS011;1882;52.256;8.874;2023-03-31T06:06:28;8.43;;;3.47;;
3733;SDS011;1882;52.256;8.874;2023-03-31T06:09:21;5.63;;;2.70;;
3733;SDS011;1882;52.256;8.874;2023-03-31T06:14:51;6.40;;;2.93;;
3733;SDS011;1882;52.256;8.874;2023-03-31T06:17:21;6.93;;;2.60;;
3733;SDS011;1882;52.256;8.874;2023-03-31T06:20:02;11.40;;;2.87;;
3733;SDS011;1882;52.256;8.874;2023-03-31T06:22:56;7.60;;;2.90;;
3733;SDS011;1882;52.256;8.874;2023-03-31T06:25:30;7.13;;;2.57;;
3733;SDS011;1882;52.256;8.874;2023-03-31T06:28:34;5.23;;;2.30;;
3733;SDS011;1882;52.256;8.874;2023-03-31T06:31:07;5.63;;;2.43;;
3733;SDS011;1882;52.256;8.874;2023-03-31T06:33:57;5.17;;;2.80;;
3733;SDS011;1882;52.256;8.874;2023-03-31T06:36:26;8.53;;;2.97;;
3733;SDS011;1882;52.256;8.874;2023-03-31T06:43:38;6.93;;;2.50;;
3733;SDS011;1882;52.256;8.874;2023-03-31T06:46:23;7.13;;;2.27;;
3733;SDS011;1882;52.256;8.874;2023-03-31T06:49:51;7.60;;;2.10;;
3733;SDS011;1882;52.256;8.874;2023-03-31T06:52:25;5.40;;;2.20;;
3733;SDS011;1882;52.256;8.874;2023-03-31T06:54:51;6.63;;;2.23;;
3733;SDS011;1882;52.256;8.874;2023-03-31T06:57:18;9.87;;;2.30;;
3733;SDS011;1882;52.256;8.874;2023-03-31T06:59:46;6.77;;;2.50;;
3733;SDS011;1882;52.256;8.874;2023-03-31T07:02:13;7.43;;;2.20;;
3733;SDS011;1882;52.256;8.874;2023-03-31T07:04:44;5.73;;;2.07;;
3733;SDS011;1882;52.256;8.874;2023-03-31T07:07:11;5.07;;;2.10;;
3733;SDS011;1882;52.256;8.874;2023-03-31T07:09:37;6.10;;;1.90;;
3733;SDS011;1882;52.256;8.874;2023-03-31T07:12:04;5.57;;;1.90;;
3733;SDS011;1882;52.256;8.874;2023-03-31T07:14:38;6.33;;;1.90;;
3733;SDS011;1882;52.256;8.874;2023-03-31T07:17:08;6.63;;;2.30;;
3733;SDS011;1882;52.256;8.874;2023-03-31T07:19:44;5.73;;;2.03;;
3733;SDS011;1882;52.256;8.874;2023-03-31T07:22:13;7.07;;;2.03;;
3733;SDS011;1882;52.256;8.874;2023-03-31T07:24:43;5.23;;;2.10;;
3733;SDS011;1882;52.256;8.874;2023-03-31T07:27:16;5.80;;;1.83;;
3733;SDS011;1882;52.256;8.874;2023-03-31T07:29:42;5.00;;;2.20;;
3733;SDS011;1882;52.256;8.874;2023-03-31T07:32:09;6.53;;;2.00;;
3733;SDS011;1882;52.256;8.874;2023-03-31T07:34:46;8.03;;;2.00;;
3733;SDS011;1882;52.256;8.874;2023-03-31T07:37:13;7.83;;;2.03;;
3733;SDS011;1882;52.256;8.874;2023-03-31T07:39:40;5.47;;;2.03;;
3733;SDS011;1882;52.256;8.874;2023-03-31T07:42:25;6.93;;;1.70;;
3733;SDS011;1882;52.256;8.874;2023-03-31T07:44:53;3.80;;;1.70;;
3733;SDS011;1882;52.256;8.874;2023-03-31T07:53:57;6.23;;;1.90;;
3733;SDS011;1882;52.256;8.874;2023-03-31T07:56:24;7.20;;;1.90;;
3733;SDS011;1882;52.256;8.874;2023-03-31T07:58:51;3.30;;;1.60;;
3733;SDS011;1882;52.256;8.874;2023-03-31T08:01:25;5.80;;;2.00;;
3733;SDS011;1882;52.256;8.874;2023-03-31T08:03:54;4.17;;;1.93;;
3733;SDS011;1882;52.256;8.874;2023-03-31T08:06:22;4.77;;;1.90;;
3733;SDS011;1882;52.256;8.874;2023-03-31T08:08:59;3.73;;;1.80;;
3733;SDS011;1882;52.256;8.874;2023-03-31T08:11:25;7.30;;;2.20;;
3733;SDS011;1882;52.256;8.874;2023-03-31T08:13:52;4.60;;;1.90;;
3733;SDS011;1882;52.256;8.874;2023-03-31T08:16:27;11.20;;;1.90;;
3733;SDS011;1882;52.256;8.874;2023-03-31T08:19:11;4.83;;;1.93;;
3733;SDS011;1882;52.256;8.874;2023-03-31T08:21:41;5.50;;;2.20;;
3733;SDS011;1882;52.256;8.874;2023-03-31T08:28:35;3.03;;;1.73;;
3733;SDS011;1882;52.256;8.874;2023-03-31T08:38:49;5.70;;;2.40;;
3733;SDS011;1882;52.256;8.874;2023-03-31T08:41:24;3.47;;;1.83;;
3733;SDS011;1882;52.256;8.874;2023-03-31T08:43:59;3.93;;;1.83;;
3733;SDS011;1882;52.256;8.874;2023-03-31T08:46:33;2.70;;;1.80;;
3733;SDS011;1882;52.256;8.874;2023-03-31T08:53:07;3.30;;;1.70;;
3733;SDS011;1882;52.256;8.874;2023-03-31T08:56:59;3.00;;;1.67;;
3733;SDS011;1882;52.256;8.874;2023-03-31T09:00:14;3.30;;;1.90;;
3733;SDS011;1882;52.256;8.874;2023-03-31T09:05:43;5.23;;;1.80;;
3733;SDS011;1882;52.256;8.874;2023-03-31T09:11:07;6.43;;;2.27;;
3733;SDS011;1882;52.256;8.874;2023-03-31T09:14:00;5.93;;;2.43;;
3733;SDS011;1882;52.256;8.874;2023-03-31T09:21:59;3.40;;;2.00;;
3733;SDS011;1882;52.256;8.874;2023-03-31T09:24:28;1.60;;;1.50;;
3733;SDS011;1882;52.256;8.874;2023-03-31T09:27:02;2.77;;;1.73;;
3733;SDS011;1882;52.256;8.874;2023-03-31T09:32:18;8.37;;;2.00;;
3733;SDS011;1882;52.256;8.874;2023-03-31T09:34:50;3.47;;;1.80;;
3733;SDS011;1882;52.256;8.874;2023-03-31T09:37:34;4.20;;;1.87;;
3733;SDS011;1882;52.256;8.874;2023-03-31T09:40:02;3.47;;;1.63;;
3733;SDS011;1882;52.256;8.874;2023-03-31T09:46:41;2.00;;;1.47;;
3733;SDS011;1882;52.256;8.874;2023-03-31T09:53:06;2.40;;;1.90;;
3733;SDS011;1882;52.256;8.874;2023-03-31T10:10:23;3.10;;;2.10;;
3733;SDS011;1882;52.256;8.874;2023-03-31T10:19:16;2.50;;;1.73;;
3733;SDS011;1882;52.256;8.874;2023-03-31T10:22:43;4.10;;;2.00;;
3733;SDS011;1882;52.256;8.874;2023-03-31T10:29:08;3.27;;;1.90;;
3733;SDS011;1882;52.256;8.874;2023-03-31T10:31:37;3.63;;;1.90;;
3733;SDS011;1882;52.256;8.874;2023-03-31T10:34:14;8.23;;;1.80;;
3733;SDS011;1882;52.256;8.874;2023-03-31T10:40:02;3.93;;;2.20;;
3733;SDS011;1882;52.256;8.874;2023-03-31T10:42:32;5.50;;;1.97;;
3733;SDS011;1882;52.256;8.874;2023-03-31T10:51:03;4.70;;;1.73;;
3733;SDS011;1882;52.256;8.874;2023-03-31T10:53:42;2.20;;;1.60;;
3733;SDS011;1882;52.256;8.874;2023-03-31T11:07:30;3.73;;;1.93;;
3733;SDS011;1882;52.256;8.874;2023-03-31T11:13:19;2.77;;;1.77;;
3733;SDS011;1882;52.256;8.874;2023-03-31T11:30:39;4.97;;;1.80;;
3733;SDS011;1882;52.256;8.874;2023-03-31T11:36:37;4.07;;;1.80;;
3733;SDS011;1882;52.256;8.874;2023-03-31T11:39:32;3.53;;;2.13;;
3733;SDS011;1882;52.256;8.874;2023-03-31T11:42:36;2.43;;;1.77;;
3733;SDS011;1882;52.256;8.874;2023-03-31T11:45:40;6.67;;;2.23;;
3733;SDS011;1882;52.256;8.874;2023-03-31T11:51:32;2.40;;;1.70;;
3733;SDS011;1882;52.256;8.874;2023-03-31T12:05:11;4.20;;;1.90;;
3733;SDS011;1882;52.256;8.874;2023-03-31T12:15:50;3.23;;;2.10;;
3733;SDS011;1882;52.256;8.874;2023-03-31T12:23:53;5.73;;;2.77;;
3733;SDS011;1882;52.256;8.874;2023-03-31T12:27:42;5.20;;;2.30;;
3733;SDS011;1882;52.256;8.874;2023-03-31T12:30:44;6.03;;;2.70;;
3733;SDS011;1882;52.256;8.874;2023-03-31T12:33:32;9.03;;;2.97;;
3733;SDS011;1882;52.256;8.874;2023-03-31T12:55:41;6.07;;;2.30;;
3733;SDS011;1882;52.256;8.874;2023-03-31T13:02:36;6.97;;;2.27;;
3733;SDS011;1882;52.256;8.874;2023-03-31T13:11:45;5.77;;;3.50;;
3733;SDS011;1882;52.256;8.874;2023-03-31T13:14:30;5.10;;;3.23;;
3733;SDS011;1882;52.256;8.874;2023-03-31T13:17:23;7.50;;;2.83;;
3733;SDS011;1882;52.256;8.874;2023-03-31T13:20:44;6.33;;;2.77;;
3733;SDS011;1882;52.256;8.874;2023-03-31T13:23:50;7.90;;;2.30;;
3733;SDS011;1882;52.256;8.874;2023-03-31T13:39:56;9.90;;;3.47;;
3733;SDS011;1882;52.256;8.874;2023-03-31T13:47:03;4.50;;;3.10;;
3733;SDS011;1882;52.256;8.874;2023-03-31T14:07:14;9.00;;;2.60;;
3733;SDS011;1882;52.256;8.874;2023-03-31T14:09:50;4.17;;;2.60;;
3733;SDS011;1882;52.256;8.874;2023-03-31T14:15:54;6.90;;;2.60;;
3733;SDS011;1882;52.256;8.874;2023-03-31T14:39:53;5.60;;;2.97;;
3733;SDS011;1882;52.256;8.874;2023-03-31T14:46:58;7.63;;;2.70;;
3733;SDS011;1882;52.256;8.874;2023-03-31T14:53:16;5.10;;;2.80;;
3733;SDS011;1882;52.256;8.874;2023-03-31T14:56:36;9.50;;;3.30;;
3733;SDS011;1882;52.256;8.874;2023-03-31T15:03:18;8.70;;;3.00;;
3733;SDS011;1882;52.256;8.874;2023-03-31T15:06:18;9.50;;;3.80;;
3733;SDS011;1882;52.256;8.874;2023-03-31T15:08:56;13.93;;;3.70;;
3733;SDS011;1882;52.256;8.874;2023-03-31T15:11:40;9.10;;;3.90;;
3733;SDS011;1882;52.256;8.874;2023-03-31T15:14:57;6.17;;;3.57;;
3733;SDS011;1882;52.256;8.874;2023-03-31T15:21:22;7.23;;;3.30;;
3733;SDS011;1882;52.256;8.874;2023-03-31T15:30:11;14.03;;;3.10;;
3733;SDS011;1882;52.256;8.874;2023-03-31T15:33:50;8.07;;;2.90;;
3733;SDS011;1882;52.256;8.874;2023-03-31T15:36:56;8.00;;;3.10;;
3733;SDS011;1882;52.256;8.874;2023-03-31T15:39:44;6.00;;;2.90;;
3733;SDS011;1882;52.256;8.874;2023-03-31T15:42:29;10.97;;;3.00;;
3733;SDS011;1882;52.256;8.874;2023-03-31T15:49:01;7.87;;;3.30;;
3733;SDS011;1882;52.256;8.874;2023-03-31T15:51:36;10.80;;;3.07;;
3733;SDS011;1882;52.256;8.874;2023-03-31T16:09:42;6.40;;;2.60;;
3733;SDS011;1882;52.256;8.874;2023-03-31T16:12:54;6.70;;;2.60;;
3733;SDS011;1882;52.256;8.874;2023-03-31T16:19:28;7.20;;;2.73;;
3733;SDS011;1882;52.256;8.874;2023-03-31T16:32:35;7.33;;;2.13;;
3733;SDS011;1882;52.256;8.874;2023-03-31T16:35:16;6.80;;;2.57;;
3733;SDS011;1882;52.256;8.874;2023-03-31T16:41:31;6.30;;;2.40;;
3733;SDS011;1882;52.256;8.874;2023-03-31T16:43:58;7.80;;;2.30;;
3733;SDS011;1882;52.256;8.874;2023-03-31T16:46:57;6.50;;;2.30;;
3733;SDS011;1882;52.256;8.874;2023-03-31T16:49:26;4.87;;;2.30;;
3733;SDS011;1882;52.256;8.874;2023-03-31T16:52:12;7.57;;;2.80;;
3733;SDS011;1882;52.256;8.874;2023-03-31T16:54:54;8.10;;;2.93;;
3733;SDS011;1882;52.256;8.874;2023-03-31T16:58:01;6.87;;;2.07;;
3733;SDS011;1882;52.256;8.874;2023-03-31T17:00:38;14.17;;;2.37;;
3733;SDS011;1882;52.256;8.874;2023-03-31T17:03:22;5.33;;;2.40;;
3733;SDS011;1882;52.256;8.874;2023-03-31T17:08:47;7.43;;;2.47;;
3733;SDS011;1882;52.256;8.874;2023-03-31T17:11:37;3.63;;;2.47;;
3733;SDS011;1882;52.256;8.874;2023-03-31T17:14:02;10.87;;;2.20;;
3733;SDS011;1882;52.256;8.874;2023-03-31T17:16:32;4.70;;;2.17;;
3733;SDS011;1882;52.256;8.874;2023-03-31T17:19:15;13.20;;;2.70;;
3733;SDS011;1882;52.256;8.874;2023-03-31T17:21:51;7.40;;;2.50;;
3733;SDS011;1882;52.256;8.874;2023-03-31T17:24:41;6.37;;;3.20;;
3733;SDS011;1882;52.256;8.874;2023-03-31T17:30:06;6.70;;;2.10;;
3733;SDS011;1882;52.256;8.874;2023-03-31T17:32:48;8.07;;;2.60;;
3733;SDS011;1882;52.256;8.874;2023-03-31T17:35:18;4.73;;;2.53;;
3733;SDS011;1882;52.256;8.874;2023-03-31T17:37:59;3.87;;;2.50;;
3733;SDS011;1882;52.256;8.874;2023-03-31T17:41:21;9.20;;;2.80;;
3733;SDS011;1882;52.256;8.874;2023-03-31T17:43:50;4.00;;;2.50;;
3733;SDS011;1882;52.256;8.874;2023-03-31T17:49:49;6.30;;;3.33;;
3733;SDS011;1882;52.256;8.874;2023-03-31T17:52:15;4.60;;;2.87;;
3733;SDS011;1882;52.256;8.874;2023-03-31T17:54:49;9.00;;;2.80;;
3733;SDS011;1882;52.256;8.874;2023-03-31T17:57:25;9.60;;;2.90;;
3733;SDS011;1882;52.256;8.874;2023-03-31T18:00:08;5.13;;;2.70;;
3733;SDS011;1882;52.256;8.874;2023-03-31T18:02:36;7.10;;;2.90;;
3733;SDS011;1882;52.256;8.874;2023-03-31T18:05:53;9.43;;;2.70;;
3733;SDS011;1882;52.256;8.874;2023-03-31T18:08:20;7.10;;;2.50;;
3733;SDS011;1882;52.256;8.874;2023-03-31T18:10:47;11.53;;;3.37;;
3733;SDS011;1882;52.256;8.874;2023-03-31T18:13:14;6.90;;;2.03;;
3733;SDS011;1882;52.256;8.874;2023-03-31T18:15:48;6.90;;;2.20;;
3733;SDS011;1882;52.256;8.874;2023-03-31T18:18:19;6.17;;;3.00;;
3733;SDS011;1882;52.256;8.874;2023-03-31T18:20:56;17.13;;;3.00;;
3733;SDS011;1882;52.256;8.874;2023-03-31T18:23:28;4.40;;;2.57;;
3733;SDS011;1882;52.256;8.874;2023-03-31T18:26:04;9.10;;;2.87;;
3733;SDS011;1882;52.256;8.874;2023-03-31T18:28:32;6.97;;;2.43;;
3733;SDS011;1882;52.256;8.874;2023-03-31T18:31:03;5.70;;;2.70;;
3733;SDS011;1882;52.256;8.874;2023-03-31T18:33:33;6.63;;;3.03;;
3733;SDS011;1882;52.256;8.874;2023-03-31T18:36:01;6.13;;;2.40;;
3733;SDS011;1882;52.256;8.874;2023-03-31T18:41:45;9.13;;;3.00;;
3733;SDS011;1882;52.256;8.874;2023-03-31T18:44:13;6.50;;;2.63;;
3733;SDS011;1882;52.256;8.874;2023-03-31T18:46:43;6.20;;;2.80;;
3733;SDS011;1882;52.256;8.874;2023-03-31T18:49:14;6.73;;;2.67;;
3733;SDS011;1882;52.256;8.874;2023-03-31T18:51:41;7.07;;;2.87;;
3733;SDS011;1882;52.256;8.874;2023-03-31T18:54:13;12.83;;;2.67;;
3733;SDS011;1882;52.256;8.874;2023-03-31T18:56:46;5.17;;;2.77;;
3733;SDS011;1882;52.256;8.874;2023-03-31T18:59:17;7.80;;;3.00;;
3733;SDS011;1882;52.256;8.874;2023-03-31T19:01:45;7.10;;;2.60;;
3733;SDS011;1882;52.256;8.874;2023-03-31T19:07:13;6.37;;;2.63;;
3733;SDS011;1882;52.256;8.874;2023-03-31T19:12:33;6.50;;;2.67;;
3733;SDS011;1882;52.256;8.874;2023-03-31T19:15:00;7.00;;;2.20;;
3733;SDS011;1882;52.256;8.874;2023-03-31T19:18:04;3.77;;;2.30;;
3733;SDS011;1882;52.256;8.874;2023-03-31T19:20:45;5.00;;;1.87;;
3733;SDS011;1882;52.256;8.874;2023-03-31T19:23:12;3.30;;;1.83;;
3733;SDS011;1882;52.256;8.874;2023-03-31T19:25:59;7.53;;;1.80;;
3733;SDS011;1882;52.256;8.874;2023-03-31T19:28:56;2.93;;;1.53;;
3733;SDS011;1882;52.256;8.874;2023-03-31T19:31:40;5.77;;;1.63;;
3733;SDS011;1882;52.256;8.874;2023-03-31T19:34:08;2.83;;;2.00;;
3733;SDS011;1882;52.256;8.874;2023-03-31T19:36:51;3.97;;;1.50;;
3733;SDS011;1882;52.256;8.874;2023-03-31T19:42:31;3.43;;;2.30;;
3733;SDS011;1882;52.256;8.874;2023-03-31T19:45:01;3.80;;;1.90;;
3733;SDS011;1882;52.256;8.874;2023-03-31T19:47:30;5.47;;;2.00;;
3733;SDS011;1882;52.256;8.874;2023-03-31T19:50:06;7.30;;;1.97;;
3733;SDS011;1882;52.256;8.874;2023-03-31T19:52:33;2.97;;;2.50;;
3733;SDS011;1882;52.256;8.874;2023-03-31T19:55:30;5.33;;;3.30;;
3733;SDS011;1882;52.256;8.874;2023-03-31T19:58:04;4.67;;;1.70;;
3733;SDS011;1882;52.256;8.874;2023-03-31T20:00:34;3.83;;;2.90;;
3733;SDS011;1882;52.256;8.874;2023-03-31T20:03:05;4.03;;;1.70;;
3733;SDS011;1882;52.256;8.874;2023-03-31T20:05:33;4.63;;;2.73;;
3733;SDS011;1882;52.256;8.874;2023-03-31T20:08:03;2.67;;;1.87;;
3733;SDS011;1882;52.256;8.874;2023-03-31T20:10:32;4.23;;;2.80;;
3733;SDS011;1882;52.256;8.874;2023-03-31T20:13:03;4.70;;;1.93;;
3733;SDS011;1882;52.256;8.874;2023-03-31T20:15:33;2.37;;;1.77;;
3733;SDS011;1882;52.256;8.874;2023-03-31T20:18:07;4.73;;;2.23;;
3733;SDS011;1882;52.256;8.874;2023-03-31T20:20:34;11.67;;;2.13;;
3733;SDS011;1882;52.256;8.874;2023-03-31T20:23:01;5.67;;;2.20;;
3733;SDS011;1882;52.256;8.874;2023-03-31T20:25:38;6.10;;;2.43;;
3733;SDS011;1882;52.256;8.874;2023-03-31T20:28:04;5.30;;;2.47;;
3733;SDS011;1882;52.256;8.874;2023-03-31T20:30:32;5.17;;;2.17;;
3733;SDS011;1882;52.256;8.874;2023-03-31T20:33:07;6.50;;;2.00;;
3733;SDS011;1882;52.256;8.874;2023-03-31T20:35:37;8.10;;;2.70;;
3733;SDS011;1882;52.256;8.874;2023-03-31T20:38:04;3.40;;;2.10;;
3733;SDS011;1882;52.256;8.874;2023-03-31T20:40:37;5.50;;;2.07;;
3733;SDS011;1882;52.256;8.874;2023-03-31T20:43:04;7.67;;;2.23;;
3733;SDS011;1882;52.256;8.874;2023-03-31T20:45:33;4.43;;;2.63;;
3733;SDS011;1882;52.256;8.874;2023-03-31T20:48:00;4.87;;;2.00;;
3733;SDS011;1882;52.256;8.874;2023-03-31T20:50:34;4.17;;;2.30;;
3733;SDS011;1882;52.256;8.874;2023-03-31T20:53:05;3.10;;;2.27;;
3733;SDS011;1882;52.256;8.874;2023-03-31T20:55:39;3.60;;;2.00;;
3733;SDS011;1882;52.256;8.874;2023-03-31T20:58:07;2.60;;;1.90;;
3733;SDS011;1882;52.256;8.874;2023-03-31T21:00:34;3.67;;;2.20;;
3733;SDS011;1882;52.256;8.874;2023-03-31T21:03:01;4.20;;;2.20;;
3733;SDS011;1882;52.256;8.874;2023-03-31T21:05:42;4.10;;;2.00;;
3733;SDS011;1882;52.256;8.874;2023-03-31T21:08:10;6.07;;;2.20;;
3733;SDS011;1882;52.256;8.874;2023-03-31T21:10:38;6.63;;;2.20;;
3733;SDS011;1882;52.256;8.874;2023-03-31T21:13:07;3.50;;;2.70;;
3733;SDS011;1882;52.256;8.874;2023-03-31T21:15:34;3.97;;;2.47;;
3733;SDS011;1882;52.256;8.874;2023-03-31T21:18:13;2.70;;;1.97;;
3733;SDS011;1882;52.256;8.874;2023-03-31T21:20:57;4.27;;;2.47;;
3733;SDS011;1882;52.256;8.874;2023-03-31T21:23:26;3.77;;;2.20;;
3733;SDS011;1882;52.256;8.874;2023-03-31T21:25:57;6.40;;;3.40;;
3733;SDS011;1882;52.256;8.874;2023-03-31T21:28:26;5.30;;;2.40;;
3733;SDS011;1882;52.256;8.874;2023-03-31T21:30:59;6.90;;;2.63;;
3733;SDS011;1882;52.256;8.874;2023-03-31T21:33:27;7.07;;;2.77;;
3733;SDS011;1882;52.256;8.874;2023-03-31T21:36:14;3.20;;;2.90;;
3733;SDS011;1882;52.256;8.874;2023-03-31T21:38:52;4.93;;;2.57;;
3733;SDS011;1882;52.256;8.874;2023-03-31T21:41:53;6.60;;;3.00;;
3733;SDS011;1882;52.256;8.874;2023-03-31T21:44:14;5.80;;;3.03;;
3733;SDS011;1882;52.256;8.874;2023-03-31T21:46:41;4.83;;;3.00;;
3733;SDS011;1882;52.256;8.874;2023-03-31T21:49:10;5.10;;;3.13;;
3733;SDS011;1882;52.256;8.874;2023-03-31T21:51:43;7.07;;;3.23;;
3733;SDS011;1882;52.256;8.874;2023-03-31T21:54:10;5.90;;;2.93;;
3733;SDS011;1882;52.256;8.874;2023-03-31T21:56:40;5.63;;;2.67;;
3733;SDS011;1882;52.256;8.874;2023-03-31T21:59:13;6.10;;;2.70;;
3733;SDS011;1882;52.256;8.874;2023-03-31T22:01:40;6.33;;;3.40;;
3733;SDS011;1882;52.256;8.874;2023-03-31T22:04:07;6.80;;;2.93;;
3733;SDS011;1882;52.256;8.874;2023-03-31T22:06:34;5.03;;;3.20;;
3733;SDS011;1882;52.256;8.874;2023-03-31T22:09:08;6.63;;;2.70;;
3733;SDS011;1882;52.256;8.874;2023-03-31T22:11:34;3.50;;;2.70;;
3733;SDS011;1882;52.256;8.874;2023-03-31T22:14:01;3.10;;;2.77;;
3733;SDS011;1882;52.256;8.874;2023-03-31T22:16:29;4.80;;;3.23;;
3733;SDS011;1882;52.256;8.874;2023-03-31T22:19:02;4.80;;;2.57;;
3733;SDS011;1882;52.256;8.874;2023-03-31T22:21:45;8.33;;;3.30;;
3733;SDS011;1882;52.256;8.874;2023-03-31T22:24:12;4.10;;;2.87;;
3733;SDS011;1882;52.256;8.874;2023-03-31T22:26:39;3.03;;;2.73;;
3733;SDS011;1882;52.256;8.874;2023-03-31T22:29:06;4.20;;;2.70;;
3733;SDS011;1882;52.256;8.874;2023-03-31T22:31:43;3.83;;;2.70;;
3733;SDS011;1882;52.256;8.874;2023-03-31T22:34:10;4.93;;;3.00;;
3733;SDS011;1882;52.256;8.874;2023-03-31T22:36:37;7.13;;;3.23;;
3733;SDS011;1882;52.256;8.874;2023-03-31T22:39:04;6.57;;;3.10;;
3733;SDS011;1882;52.256;8.874;2023-03-31T22:41:37;4.30;;;3.07;;
3733;SDS011;1882;52.256;8.874;2023-03-31T22:44:04;10.80;;;3.03;;
3733;SDS011;1882;52.256;8.874;2023-03-31T22:46:34;4.63;;;2.80;;